sensor_id;sensor_type;location;lat;lon;timestamp;temperature;humidity
33105;DHT22;19476;51.448;6.674;2022-11-20T00:01:07;9.90;40.60
33105;DHT22;19476;51.448;6.674;2022-11-20T00:03:33;9.90;40.60
33105;DHT22;19476;51.448;6.674;2022-11-20T00:06:00;9.90;40.60
33105;DHT22;19476;51.448;6.674;2022-11-20T00:08:27;9.90;40.70
33105;DHT22;19476;51.448;6.674;2022-11-20T00:11:08;9.90;40.70
33105;DHT22;19476;51.448;6.674;2022-11-20T00:17:16;9.90;40.70
33105;DHT22;19476;51.448;6.674;2022-11-20T00:26:28;9.80;40.80
33105;DHT22;19476;51.448;6.674;2022-11-20T00:28:58;9.80;41.00
33105;DHT22;19476;51.448;6.674;2022-11-20T00:31:34;9.80;41.00
33105;DHT22;19476;51.448;6.674;2022-11-20T00:37:40;9.70;41.00
33105;DHT22;19476;51.448;6.674;2022-11-20T00:40:16;9.70;40.90
33105;DHT22;19476;51.448;6.674;2022-11-20T00:46:38;9.70;41.00
33105;DHT22;19476;51.448;6.674;2022-11-20T00:49:04;9.70;41.20
33105;DHT22;19476;51.448;6.674;2022-11-20T00:51:30;9.70;41.30
33105;DHT22;19476;51.448;6.674;2022-11-20T00:53:57;9.70;41.20
33105;DHT22;19476;51.448;6.674;2022-11-20T00:56:24;9.70;41.40
33105;DHT22;19476;51.448;6.674;2022-11-20T00:59:13;9.60;41.40
33105;DHT22;19476;51.448;6.674;2022-11-20T01:01:39;9.60;41.20
33105;DHT22;19476;51.448;6.674;2022-11-20T01:04:05;9.60;41.40
33105;DHT22;19476;51.448;6.674;2022-11-20T01:06:36;9.60;41.40
33105;DHT22;19476;51.448;6.674;2022-11-20T01:09:05;9.70;41.40
33105;DHT22;19476;51.448;6.674;2022-11-20T01:11:36;9.70;41.50
33105;DHT22;19476;51.448;6.674;2022-11-20T01:14:05;9.70;41.50
33105;DHT22;19476;51.448;6.674;2022-11-20T01:16:33;9.70;41.60
33105;DHT22;19476;51.448;6.674;2022-11-20T01:19:01;9.70;41.50
33105;DHT22;19476;51.448;6.674;2022-11-20T01:21:32;9.70;41.60
33105;DHT22;19476;51.448;6.674;2022-11-20T01:23:59;9.60;41.40
33105;DHT22;19476;51.448;6.674;2022-11-20T01:26:28;9.60;41.50
33105;DHT22;19476;51.448;6.674;2022-11-20T01:28:55;9.70;41.50
33105;DHT22;19476;51.448;6.674;2022-11-20T01:31:28;9.60;41.50
33105;DHT22;19476;51.448;6.674;2022-11-20T01:33:58;9.70;41.50
33105;DHT22;19476;51.448;6.674;2022-11-20T01:36:25;9.70;41.60
33105;DHT22;19476;51.448;6.674;2022-11-20T01:38:56;9.70;41.70
33105;DHT22;19476;51.448;6.674;2022-11-20T01:41:23;9.70;41.80
33105;DHT22;19476;51.448;6.674;2022-11-20T01:44:10;9.70;41.80
33105;DHT22;19476;51.448;6.674;2022-11-20T01:46:38;9.70;41.90
33105;DHT22;19476;51.448;6.674;2022-11-20T01:49:21;9.70;41.90
33105;DHT22;19476;51.448;6.674;2022-11-20T01:51:59;9.70;41.90
33105;DHT22;19476;51.448;6.674;2022-11-20T01:54:40;9.70;42.00
33105;DHT22;19476;51.448;6.674;2022-11-20T01:57:10;9.70;42.00
33105;DHT22;19476;51.448;6.674;2022-11-20T01:59:40;9.70;42.10
33105;DHT22;19476;51.448;6.674;2022-11-20T02:02:07;9.80;42.20
33105;DHT22;19476;51.448;6.674;2022-11-20T02:04:33;9.70;42.00
33105;DHT22;19476;51.448;6.674;2022-11-20T02:07:02;9.80;42.00
33105;DHT22;19476;51.448;6.674;2022-11-20T02:09:30;9.80;42.00
33105;DHT22;19476;51.448;6.674;2022-11-20T02:11:56;9.80;42.10
33105;DHT22;19476;51.448;6.674;2022-11-20T02:14:23;9.80;42.20
33105;DHT22;19476;51.448;6.674;2022-11-20T02:16:50;9.80;42.20
33105;DHT22;19476;51.448;6.674;2022-11-20T02:19:27;9.90;42.20
33105;DHT22;19476;51.448;6.674;2022-11-20T02:24:26;9.90;42.00
33105;DHT22;19476;51.448;6.674;2022-11-20T02:27:11;9.90;42.10
33105;DHT22;19476;51.448;6.674;2022-11-20T02:30:00;9.90;42.10
33105;DHT22;19476;51.448;6.674;2022-11-20T02:32:31;9.90;42.20
33105;DHT22;19476;51.448;6.674;2022-11-20T02:34:58;9.90;42.40
33105;DHT22;19476;51.448;6.674;2022-11-20T02:37:34;10.00;42.40
33105;DHT22;19476;51.448;6.674;2022-11-20T02:40:00;10.00;42.30
33105;DHT22;19476;51.448;6.674;2022-11-20T02:42:26;10.00;42.30
33105;DHT22;19476;51.448;6.674;2022-11-20T02:44:53;10.00;42.30
33105;DHT22;19476;51.448;6.674;2022-11-20T02:47:19;10.00;42.30
33105;DHT22;19476;51.448;6.674;2022-11-20T02:49:44;10.00;42.40
33105;DHT22;19476;51.448;6.674;2022-11-20T02:52:10;10.00;42.40
33105;DHT22;19476;51.448;6.674;2022-11-20T02:54:36;10.10;42.50
33105;DHT22;19476;51.448;6.674;2022-11-20T02:57:02;10.10;42.60
33105;DHT22;19476;51.448;6.674;2022-11-20T02:59:28;10.10;42.60
33105;DHT22;19476;51.448;6.674;2022-11-20T03:01:53;10.10;42.60
33105;DHT22;19476;51.448;6.674;2022-11-20T03:04:19;10.10;42.60
33105;DHT22;19476;51.448;6.674;2022-11-20T03:06:45;10.20;42.60
33105;DHT22;19476;51.448;6.674;2022-11-20T03:09:11;10.20;42.60
33105;DHT22;19476;51.448;6.674;2022-11-20T03:11:37;10.20;42.60
33105;DHT22;19476;51.448;6.674;2022-11-20T03:14:04;10.20;42.70
33105;DHT22;19476;51.448;6.674;2022-11-20T03:16:31;10.20;42.70
33105;DHT22;19476;51.448;6.674;2022-11-20T03:18:58;10.20;42.80
33105;DHT22;19476;51.448;6.674;2022-11-20T03:21:24;10.20;42.80
33105;DHT22;19476;51.448;6.674;2022-11-20T03:23:50;10.20;42.70
33105;DHT22;19476;51.448;6.674;2022-11-20T03:26:21;10.20;42.70
33105;DHT22;19476;51.448;6.674;2022-11-20T03:28:52;10.20;42.60
33105;DHT22;19476;51.448;6.674;2022-11-20T03:31:29;10.20;42.60
33105;DHT22;19476;51.448;6.674;2022-11-20T03:33:56;10.20;42.70
33105;DHT22;19476;51.448;6.674;2022-11-20T03:36:23;10.20;42.80
33105;DHT22;19476;51.448;6.674;2022-11-20T03:38:49;10.20;42.70
33105;DHT22;19476;51.448;6.674;2022-11-20T03:41:20;10.20;42.70
33105;DHT22;19476;51.448;6.674;2022-11-20T03:43:53;10.20;42.70
33105;DHT22;19476;51.448;6.674;2022-11-20T03:46:19;10.20;42.70
33105;DHT22;19476;51.448;6.674;2022-11-20T03:48:46;10.20;42.80
33105;DHT22;19476;51.448;6.674;2022-11-20T03:51:16;10.20;42.70
33105;DHT22;19476;51.448;6.674;2022-11-20T03:53:43;10.20;42.70
33105;DHT22;19476;51.448;6.674;2022-11-20T03:56:10;10.20;42.90
33105;DHT22;19476;51.448;6.674;2022-11-20T03:58:37;10.20;42.90
33105;DHT22;19476;51.448;6.674;2022-11-20T04:01:12;10.20;43.00
33105;DHT22;19476;51.448;6.674;2022-11-20T04:03:39;10.10;43.10
33105;DHT22;19476;51.448;6.674;2022-11-20T04:06:11;10.20;43.30
33105;DHT22;19476;51.448;6.674;2022-11-20T04:08:37;10.20;43.30
33105;DHT22;19476;51.448;6.674;2022-11-20T04:13:39;10.20;43.40
33105;DHT22;19476;51.448;6.674;2022-11-20T04:16:07;10.20;43.40
33105;DHT22;19476;51.448;6.674;2022-11-20T04:18:34;10.20;43.40
33105;DHT22;19476;51.448;6.674;2022-11-20T04:21:00;10.20;43.50
33105;DHT22;19476;51.448;6.674;2022-11-20T04:23:26;10.30;43.40
33105;DHT22;19476;51.448;6.674;2022-11-20T04:25:52;10.30;43.40
33105;DHT22;19476;51.448;6.674;2022-11-20T04:28:18;10.30;43.40
33105;DHT22;19476;51.448;6.674;2022-11-20T04:30:44;10.30;43.40
33105;DHT22;19476;51.448;6.674;2022-11-20T04:33:10;10.30;43.40
33105;DHT22;19476;51.448;6.674;2022-11-20T04:35:37;10.30;43.30
33105;DHT22;19476;51.448;6.674;2022-11-20T04:38:03;10.30;43.40
33105;DHT22;19476;51.448;6.674;2022-11-20T04:40:29;10.30;43.40
33105;DHT22;19476;51.448;6.674;2022-11-20T04:42:55;10.30;43.50
33105;DHT22;19476;51.448;6.674;2022-11-20T04:45:22;10.30;43.40
33105;DHT22;19476;51.448;6.674;2022-11-20T04:47:48;10.30;43.40
33105;DHT22;19476;51.448;6.674;2022-11-20T04:50:14;10.30;43.20
33105;DHT22;19476;51.448;6.674;2022-11-20T04:52:40;10.30;43.20
33105;DHT22;19476;51.448;6.674;2022-11-20T04:55:06;10.20;43.10
33105;DHT22;19476;51.448;6.674;2022-11-20T04:57:32;10.20;43.10
33105;DHT22;19476;51.448;6.674;2022-11-20T04:59:58;10.20;42.90
33105;DHT22;19476;51.448;6.674;2022-11-20T05:02:24;10.10;42.70
33105;DHT22;19476;51.448;6.674;2022-11-20T05:04:49;10.10;42.80
33105;DHT22;19476;51.448;6.674;2022-11-20T05:07:15;10.00;42.90
33105;DHT22;19476;51.448;6.674;2022-11-20T05:09:41;10.00;42.90
33105;DHT22;19476;51.448;6.674;2022-11-20T05:12:10;9.90;43.00
33105;DHT22;19476;51.448;6.674;2022-11-20T05:14:35;9.90;43.00
33105;DHT22;19476;51.448;6.674;2022-11-20T05:17:01;9.90;43.10
33105;DHT22;19476;51.448;6.674;2022-11-20T05:19:27;9.80;43.20
33105;DHT22;19476;51.448;6.674;2022-11-20T05:21:53;9.80;43.30
33105;DHT22;19476;51.448;6.674;2022-11-20T05:24:19;9.80;43.30
33105;DHT22;19476;51.448;6.674;2022-11-20T05:26:44;9.80;44.00
33105;DHT22;19476;51.448;6.674;2022-11-20T05:29:11;9.90;43.60
33105;DHT22;19476;51.448;6.674;2022-11-20T05:31:39;9.90;43.60
33105;DHT22;19476;51.448;6.674;2022-11-20T05:34:06;9.90;43.60
33105;DHT22;19476;51.448;6.674;2022-11-20T05:36:32;9.90;43.60
33105;DHT22;19476;51.448;6.674;2022-11-20T05:38:58;9.90;43.70
33105;DHT22;19476;51.448;6.674;2022-11-20T05:41:24;9.90;43.60
33105;DHT22;19476;51.448;6.674;2022-11-20T05:43:50;10.00;43.70
33105;DHT22;19476;51.448;6.674;2022-11-20T05:46:18;10.00;43.60
33105;DHT22;19476;51.448;6.674;2022-11-20T05:48:46;10.00;43.60
33105;DHT22;19476;51.448;6.674;2022-11-20T05:51:14;10.10;43.60
33105;DHT22;19476;51.448;6.674;2022-11-20T05:53:41;10.10;43.60
33105;DHT22;19476;51.448;6.674;2022-11-20T05:56:10;10.10;43.60
33105;DHT22;19476;51.448;6.674;2022-11-20T05:58:36;10.20;43.50
33105;DHT22;19476;51.448;6.674;2022-11-20T06:03:37;10.20;43.40
33105;DHT22;19476;51.448;6.674;2022-11-20T06:06:04;10.20;43.50
33105;DHT22;19476;51.448;6.674;2022-11-20T06:08:31;10.20;43.40
33105;DHT22;19476;51.448;6.674;2022-11-20T06:10:57;10.20;43.40
33105;DHT22;19476;51.448;6.674;2022-11-20T06:13:23;10.30;43.50
33105;DHT22;19476;51.448;6.674;2022-11-20T06:15:52;10.20;43.40
33105;DHT22;19476;51.448;6.674;2022-11-20T06:18:19;10.30;43.50
33105;DHT22;19476;51.448;6.674;2022-11-20T06:20:45;10.30;43.50
33105;DHT22;19476;51.448;6.674;2022-11-20T06:23:12;10.30;43.60
33105;DHT22;19476;51.448;6.674;2022-11-20T06:25:42;10.40;43.50
33105;DHT22;19476;51.448;6.674;2022-11-20T06:28:08;10.40;43.50
33105;DHT22;19476;51.448;6.674;2022-11-20T06:30:35;10.40;43.60
33105;DHT22;19476;51.448;6.674;2022-11-20T06:33:01;10.40;43.60
33105;DHT22;19476;51.448;6.674;2022-11-20T06:35:27;10.40;43.50
33105;DHT22;19476;51.448;6.674;2022-11-20T06:37:53;10.40;43.40
33105;DHT22;19476;51.448;6.674;2022-11-20T06:40:18;10.50;43.50
33105;DHT22;19476;51.448;6.674;2022-11-20T06:42:44;10.50;43.40
33105;DHT22;19476;51.448;6.674;2022-11-20T06:45:10;10.50;43.40
33105;DHT22;19476;51.448;6.674;2022-11-20T06:47:36;10.50;43.40
33105;DHT22;19476;51.448;6.674;2022-11-20T06:50:02;10.50;43.50
33105;DHT22;19476;51.448;6.674;2022-11-20T06:52:28;10.50;43.60
33105;DHT22;19476;51.448;6.674;2022-11-20T06:54:54;10.50;43.50
33105;DHT22;19476;51.448;6.674;2022-11-20T06:57:19;10.50;43.60
33105;DHT22;19476;51.448;6.674;2022-11-20T06:59:45;10.50;43.60
33105;DHT22;19476;51.448;6.674;2022-11-20T07:02:12;10.50;43.60
33105;DHT22;19476;51.448;6.674;2022-11-20T07:04:38;10.50;43.60
33105;DHT22;19476;51.448;6.674;2022-11-20T07:07:04;10.50;43.80
33105;DHT22;19476;51.448;6.674;2022-11-20T07:09:30;10.50;43.80
33105;DHT22;19476;51.448;6.674;2022-11-20T07:11:56;10.50;43.80
33105;DHT22;19476;51.448;6.674;2022-11-20T07:14:21;10.50;43.80
33105;DHT22;19476;51.448;6.674;2022-11-20T07:16:47;10.60;43.90
33105;DHT22;19476;51.448;6.674;2022-11-20T07:19:13;10.60;43.90
33105;DHT22;19476;51.448;6.674;2022-11-20T07:21:39;10.60;43.90
33105;DHT22;19476;51.448;6.674;2022-11-20T07:24:05;10.70;43.90
33105;DHT22;19476;51.448;6.674;2022-11-20T07:26:30;10.70;43.90
33105;DHT22;19476;51.448;6.674;2022-11-20T07:28:56;10.70;43.90
33105;DHT22;19476;51.448;6.674;2022-11-20T07:31:22;10.70;43.80
33105;DHT22;19476;51.448;6.674;2022-11-20T07:33:48;10.70;43.80
33105;DHT22;19476;51.448;6.674;2022-11-20T07:36:13;10.70;43.80
33105;DHT22;19476;51.448;6.674;2022-11-20T07:38:40;10.70;43.90
33105;DHT22;19476;51.448;6.674;2022-11-20T07:41:05;10.70;43.90
33105;DHT22;19476;51.448;6.674;2022-11-20T07:43:31;10.80;44.00
33105;DHT22;19476;51.448;6.674;2022-11-20T07:46:00;10.80;43.90
33105;DHT22;19476;51.448;6.674;2022-11-20T07:48:26;10.80;44.00
33105;DHT22;19476;51.448;6.674;2022-11-20T07:50:55;10.80;44.00
33105;DHT22;19476;51.448;6.674;2022-11-20T07:53:22;10.80;44.00
33105;DHT22;19476;51.448;6.674;2022-11-20T07:55:48;10.80;44.00
33105;DHT22;19476;51.448;6.674;2022-11-20T07:58:14;10.80;44.00
33105;DHT22;19476;51.448;6.674;2022-11-20T08:00:40;10.80;43.90
33105;DHT22;19476;51.448;6.674;2022-11-20T08:03:06;10.90;44.00
33105;DHT22;19476;51.448;6.674;2022-11-20T08:05:33;10.90;44.10
33105;DHT22;19476;51.448;6.674;2022-11-20T08:07:59;10.90;44.00
33105;DHT22;19476;51.448;6.674;2022-11-20T08:10:25;10.90;44.00
33105;DHT22;19476;51.448;6.674;2022-11-20T08:12:51;11.00;44.10
33105;DHT22;19476;51.448;6.674;2022-11-20T08:15:37;11.00;44.20
33105;DHT22;19476;51.448;6.674;2022-11-20T08:20:31;11.10;44.00
33105;DHT22;19476;51.448;6.674;2022-11-20T08:23:04;11.10;44.00
33105;DHT22;19476;51.448;6.674;2022-11-20T08:25:32;11.10;44.00
33105;DHT22;19476;51.448;6.674;2022-11-20T08:28:00;11.20;44.10
33105;DHT22;19476;51.448;6.674;2022-11-20T08:30:26;11.20;44.00
33105;DHT22;19476;51.448;6.674;2022-11-20T08:32:52;11.20;44.00
33105;DHT22;19476;51.448;6.674;2022-11-20T08:35:18;11.20;44.10
33105;DHT22;19476;51.448;6.674;2022-11-20T08:37:47;11.30;44.10
33105;DHT22;19476;51.448;6.674;2022-11-20T08:40:13;11.30;44.20
33105;DHT22;19476;51.448;6.674;2022-11-20T08:42:49;11.30;44.10
33105;DHT22;19476;51.448;6.674;2022-11-20T08:45:16;11.30;43.90
33105;DHT22;19476;51.448;6.674;2022-11-20T08:47:43;11.30;43.90
33105;DHT22;19476;51.448;6.674;2022-11-20T08:50:11;11.30;43.90
33105;DHT22;19476;51.448;6.674;2022-11-20T08:52:37;11.30;43.90
33105;DHT22;19476;51.448;6.674;2022-11-20T08:55:04;11.40;43.90
33105;DHT22;19476;51.448;6.674;2022-11-20T08:57:35;11.40;43.90
33105;DHT22;19476;51.448;6.674;2022-11-20T09:00:01;11.30;43.80
33105;DHT22;19476;51.448;6.674;2022-11-20T09:02:27;11.40;44.00
33105;DHT22;19476;51.448;6.674;2022-11-20T09:04:53;11.30;43.80
33105;DHT22;19476;51.448;6.674;2022-11-20T09:07:19;11.30;43.90
33105;DHT22;19476;51.448;6.674;2022-11-20T09:09:45;11.20;44.00
33105;DHT22;19476;51.448;6.674;2022-11-20T09:12:11;11.20;44.10
33105;DHT22;19476;51.448;6.674;2022-11-20T09:14:37;11.20;44.20
33105;DHT22;19476;51.448;6.674;2022-11-20T09:17:03;11.20;44.30
33105;DHT22;19476;51.448;6.674;2022-11-20T09:19:28;11.30;44.50
33105;DHT22;19476;51.448;6.674;2022-11-20T09:21:54;11.30;44.50
33105;DHT22;19476;51.448;6.674;2022-11-20T09:24:20;11.20;44.40
33105;DHT22;19476;51.448;6.674;2022-11-20T09:26:46;11.20;44.50
33105;DHT22;19476;51.448;6.674;2022-11-20T09:29:12;11.30;44.50
33105;DHT22;19476;51.448;6.674;2022-11-20T09:31:38;11.30;44.50
33105;DHT22;19476;51.448;6.674;2022-11-20T09:34:04;11.30;44.40
33105;DHT22;19476;51.448;6.674;2022-11-20T09:36:30;11.30;44.50
33105;DHT22;19476;51.448;6.674;2022-11-20T09:38:56;11.30;44.50
33105;DHT22;19476;51.448;6.674;2022-11-20T09:44:39;11.20;44.70
33105;DHT22;19476;51.448;6.674;2022-11-20T09:47:47;11.30;44.80
33105;DHT22;19476;51.448;6.674;2022-11-20T09:55:39;11.30;45.10
33105;DHT22;19476;51.448;6.674;2022-11-20T09:58:16;11.30;45.00
33105;DHT22;19476;51.448;6.674;2022-11-20T10:00:49;11.40;45.20
33105;DHT22;19476;51.448;6.674;2022-11-20T10:03:23;11.40;45.10
33105;DHT22;19476;51.448;6.674;2022-11-20T10:05:54;11.40;45.00
33105;DHT22;19476;51.448;6.674;2022-11-20T10:08:35;11.50;45.00
33105;DHT22;19476;51.448;6.674;2022-11-20T10:11:33;11.50;45.10
33105;DHT22;19476;51.448;6.674;2022-11-20T10:14:17;11.50;45.10
33105;DHT22;19476;51.448;6.674;2022-11-20T10:27:56;11.50;45.20
33105;DHT22;19476;51.448;6.674;2022-11-20T10:30:27;11.60;45.50
33105;DHT22;19476;51.448;6.674;2022-11-20T10:38:44;11.60;45.50
33105;DHT22;19476;51.448;6.674;2022-11-20T10:41:21;11.60;46.00
33105;DHT22;19476;51.448;6.674;2022-11-20T10:44:05;11.60;46.00
33105;DHT22;19476;51.448;6.674;2022-11-20T10:46:43;11.60;46.30
33105;DHT22;19476;51.448;6.674;2022-11-20T10:49:20;11.60;46.30
33105;DHT22;19476;51.448;6.674;2022-11-20T11:00:33;11.60;46.90
33105;DHT22;19476;51.448;6.674;2022-11-20T11:02:59;11.60;46.30
33105;DHT22;19476;51.448;6.674;2022-11-20T11:08:17;11.60;47.00
33105;DHT22;19476;51.448;6.674;2022-11-20T11:10:57;11.60;46.70
33105;DHT22;19476;51.448;6.674;2022-11-20T11:13:25;11.60;47.20
33105;DHT22;19476;51.448;6.674;2022-11-20T11:15:52;11.60;46.80
33105;DHT22;19476;51.448;6.674;2022-11-20T11:18:30;11.60;46.90
33105;DHT22;19476;51.448;6.674;2022-11-20T11:21:02;11.50;47.10
33105;DHT22;19476;51.448;6.674;2022-11-20T11:26:02;11.50;47.20
33105;DHT22;19476;51.448;6.674;2022-11-20T11:28:28;11.50;47.20
33105;DHT22;19476;51.448;6.674;2022-11-20T11:30:55;11.50;47.20
33105;DHT22;19476;51.448;6.674;2022-11-20T11:33:25;11.50;47.30
33105;DHT22;19476;51.448;6.674;2022-11-20T11:35:59;11.40;47.40
33105;DHT22;19476;51.448;6.674;2022-11-20T11:38:39;11.40;47.50
33105;DHT22;19476;51.448;6.674;2022-11-20T11:41:11;11.40;47.70
33105;DHT22;19476;51.448;6.674;2022-11-20T11:43:38;11.40;47.60
33105;DHT22;19476;51.448;6.674;2022-11-20T11:55:09;11.40;48.00
33105;DHT22;19476;51.448;6.674;2022-11-20T11:57:22;11.40;47.90
33105;DHT22;19476;51.448;6.674;2022-11-20T12:07:45;11.40;48.10
33105;DHT22;19476;51.448;6.674;2022-11-20T12:12:44;11.40;48.30
33105;DHT22;19476;51.448;6.674;2022-11-20T12:15:22;11.40;48.30
33105;DHT22;19476;51.448;6.674;2022-11-20T12:17:49;11.40;48.40
33105;DHT22;19476;51.448;6.674;2022-11-20T12:20:15;11.40;48.20
33105;DHT22;19476;51.448;6.674;2022-11-20T12:25:30;11.40;48.50
33105;DHT22;19476;51.448;6.674;2022-11-20T12:36:27;11.50;48.70
33105;DHT22;19476;51.448;6.674;2022-11-20T12:39:16;11.50;48.60
33105;DHT22;19476;51.448;6.674;2022-11-20T12:41:51;11.60;48.60
33105;DHT22;19476;51.448;6.674;2022-11-20T12:53:28;11.60;48.30
33105;DHT22;19476;51.448;6.674;2022-11-20T13:06:58;11.60;48.80
33105;DHT22;19476;51.448;6.674;2022-11-20T13:09:25;11.60;48.40
33105;DHT22;19476;51.448;6.674;2022-11-20T13:12:14;11.60;48.60
33105;DHT22;19476;51.448;6.674;2022-11-20T13:17:43;11.60;48.90
33105;DHT22;19476;51.448;6.674;2022-11-20T13:20:15;11.60;49.80
33105;DHT22;19476;51.448;6.674;2022-11-20T13:22:55;11.60;49.40
33105;DHT22;19476;51.448;6.674;2022-11-20T13:25:35;11.60;49.90
33105;DHT22;19476;51.448;6.674;2022-11-20T13:30:48;11.60;49.70
33105;DHT22;19476;51.448;6.674;2022-11-20T13:33:30;11.60;49.60
33105;DHT22;19476;51.448;6.674;2022-11-20T13:36:00;11.60;50.30
33105;DHT22;19476;51.448;6.674;2022-11-20T13:38:27;11.60;49.80
33105;DHT22;19476;51.448;6.674;2022-11-20T13:40:56;11.60;50.30
33105;DHT22;19476;51.448;6.674;2022-11-20T13:43:35;11.60;50.00
33105;DHT22;19476;51.448;6.674;2022-11-20T13:46:03;11.60;50.50
33105;DHT22;19476;51.448;6.674;2022-11-20T13:48:45;11.60;50.40
33105;DHT22;19476;51.448;6.674;2022-11-20T13:51:37;11.60;50.10
33105;DHT22;19476;51.448;6.674;2022-11-20T13:56:59;11.50;50.10
33105;DHT22;19476;51.448;6.674;2022-11-20T13:59:58;11.50;50.50
33105;DHT22;19476;51.448;6.674;2022-11-20T14:02:28;11.40;51.00
33105;DHT22;19476;51.448;6.674;2022-11-20T14:04:58;11.40;50.50
33105;DHT22;19476;51.448;6.674;2022-11-20T14:07:31;11.40;50.90
33105;DHT22;19476;51.448;6.674;2022-11-20T14:09:58;11.40;51.10
33105;DHT22;19476;51.448;6.674;2022-11-20T14:12:33;11.30;51.00
33105;DHT22;19476;51.448;6.674;2022-11-20T14:14:59;11.30;51.80
33105;DHT22;19476;51.448;6.674;2022-11-20T14:19:58;11.20;51.80
33105;DHT22;19476;51.448;6.674;2022-11-20T14:22:26;11.20;52.00
33105;DHT22;19476;51.448;6.674;2022-11-20T14:27:47;11.10;52.70
33105;DHT22;19476;51.448;6.674;2022-11-20T14:30:21;11.10;52.40
33105;DHT22;19476;51.448;6.674;2022-11-20T14:32:48;11.10;52.90
33105;DHT22;19476;51.448;6.674;2022-11-20T14:35:27;11.10;52.50
33105;DHT22;19476;51.448;6.674;2022-11-20T14:37:55;11.10;53.30
33105;DHT22;19476;51.448;6.674;2022-11-20T14:40:26;11.10;52.80
33105;DHT22;19476;51.448;6.674;2022-11-20T14:42:52;11.10;53.30
33105;DHT22;19476;51.448;6.674;2022-11-20T14:45:19;11.10;53.10
33105;DHT22;19476;51.448;6.674;2022-11-20T14:47:46;11.10;53.10
33105;DHT22;19476;51.448;6.674;2022-11-20T14:50:21;11.10;53.10
33105;DHT22;19476;51.448;6.674;2022-11-20T14:52:53;11.10;53.60
33105;DHT22;19476;51.448;6.674;2022-11-20T14:57:57;11.10;53.80
33105;DHT22;19476;51.448;6.674;2022-11-20T15:00:24;11.10;53.50
33105;DHT22;19476;51.448;6.674;2022-11-20T15:02:52;11.10;53.50
33105;DHT22;19476;51.448;6.674;2022-11-20T15:05:26;11.10;53.60
33105;DHT22;19476;51.448;6.674;2022-11-20T15:08:09;11.20;54.00
33105;DHT22;19476;51.448;6.674;2022-11-20T15:10:36;11.20;53.70
33105;DHT22;19476;51.448;6.674;2022-11-20T15:13:10;11.20;53.80
33105;DHT22;19476;51.448;6.674;2022-11-20T15:15:51;11.10;54.00
33105;DHT22;19476;51.448;6.674;2022-11-20T15:18:30;11.10;54.40
33105;DHT22;19476;51.448;6.674;2022-11-20T15:21:01;11.10;54.40
33105;DHT22;19476;51.448;6.674;2022-11-20T15:23:28;11.10;54.00
33105;DHT22;19476;51.448;6.674;2022-11-20T15:25:55;11.10;54.50
33105;DHT22;19476;51.448;6.674;2022-11-20T15:28:39;11.10;54.10
33105;DHT22;19476;51.448;6.674;2022-11-20T15:31:09;11.10;54.90
33105;DHT22;19476;51.448;6.674;2022-11-20T15:33:36;11.10;54.30
33105;DHT22;19476;51.448;6.674;2022-11-20T15:36:02;11.10;54.70
33105;DHT22;19476;51.448;6.674;2022-11-20T15:38:28;11.10;54.10
33105;DHT22;19476;51.448;6.674;2022-11-20T15:40:54;11.10;54.30
33105;DHT22;19476;51.448;6.674;2022-11-20T15:43:20;11.00;54.50
33105;DHT22;19476;51.448;6.674;2022-11-20T15:46:08;11.00;54.60
33105;DHT22;19476;51.448;6.674;2022-11-20T15:48:45;11.00;55.70
33105;DHT22;19476;51.448;6.674;2022-11-20T15:51:26;11.00;55.50
33105;DHT22;19476;51.448;6.674;2022-11-20T15:53:52;11.00;55.40
33105;DHT22;19476;51.448;6.674;2022-11-20T15:56:19;11.00;54.90
33105;DHT22;19476;51.448;6.674;2022-11-20T15:58:45;11.00;55.00
33105;DHT22;19476;51.448;6.674;2022-11-20T16:01:12;11.10;55.00
33105;DHT22;19476;51.448;6.674;2022-11-20T16:03:39;11.10;55.20
33105;DHT22;19476;51.448;6.674;2022-11-20T16:06:05;11.10;55.10
33105;DHT22;19476;51.448;6.674;2022-11-20T16:08:31;11.10;55.10
33105;DHT22;19476;51.448;6.674;2022-11-20T16:10:57;11.10;55.10
33105;DHT22;19476;51.448;6.674;2022-11-20T16:13:22;11.10;55.00
33105;DHT22;19476;51.448;6.674;2022-11-20T16:16:22;11.20;55.10
33105;DHT22;19476;51.448;6.674;2022-11-20T16:18:49;11.20;55.90
33105;DHT22;19476;51.448;6.674;2022-11-20T16:21:15;11.20;55.20
33105;DHT22;19476;51.448;6.674;2022-11-20T16:23:42;11.20;55.20
33105;DHT22;19476;51.448;6.674;2022-11-20T16:26:26;11.10;55.30
33105;DHT22;19476;51.448;6.674;2022-11-20T16:28:52;11.20;56.20
33105;DHT22;19476;51.448;6.674;2022-11-20T16:31:19;11.20;55.40
33105;DHT22;19476;51.448;6.674;2022-11-20T16:33:53;11.20;55.50
33105;DHT22;19476;51.448;6.674;2022-11-20T16:36:20;11.20;56.00
33105;DHT22;19476;51.448;6.674;2022-11-20T16:38:46;11.20;55.50
33105;DHT22;19476;51.448;6.674;2022-11-20T16:41:12;11.30;55.60
33105;DHT22;19476;51.448;6.674;2022-11-20T16:43:48;11.30;55.60
33105;DHT22;19476;51.448;6.674;2022-11-20T16:46:16;11.30;56.30
33105;DHT22;19476;51.448;6.674;2022-11-20T16:48:41;11.30;55.90
33105;DHT22;19476;51.448;6.674;2022-11-20T16:51:09;11.30;55.80
33105;DHT22;19476;51.448;6.674;2022-11-20T16:53:35;11.30;56.00
33105;DHT22;19476;51.448;6.674;2022-11-20T16:56:12;11.30;56.00
33105;DHT22;19476;51.448;6.674;2022-11-20T16:58:38;11.30;56.70
33105;DHT22;19476;51.448;6.674;2022-11-20T17:01:08;11.30;56.10
33105;DHT22;19476;51.448;6.674;2022-11-20T17:03:39;11.30;56.50
33105;DHT22;19476;51.448;6.674;2022-11-20T17:06:13;11.30;56.60
33105;DHT22;19476;51.448;6.674;2022-11-20T17:08:39;11.40;57.10
33105;DHT22;19476;51.448;6.674;2022-11-20T17:11:07;11.30;56.40
33105;DHT22;19476;51.448;6.674;2022-11-20T17:13:33;11.40;56.70
33105;DHT22;19476;51.448;6.674;2022-11-20T17:16:04;11.40;56.70
33105;DHT22;19476;51.448;6.674;2022-11-20T17:18:30;11.40;57.10
33105;DHT22;19476;51.448;6.674;2022-11-20T17:20:57;11.50;56.70
33105;DHT22;19476;51.448;6.674;2022-11-20T17:23:22;11.40;56.80
33105;DHT22;19476;51.448;6.674;2022-11-20T17:25:48;11.50;57.00
33105;DHT22;19476;51.448;6.674;2022-11-20T17:28:14;11.40;57.00
33105;DHT22;19476;51.448;6.674;2022-11-20T17:30:40;11.50;57.20
33105;DHT22;19476;51.448;6.674;2022-11-20T17:33:06;11.50;57.30
33105;DHT22;19476;51.448;6.674;2022-11-20T17:35:35;11.50;57.30
33105;DHT22;19476;51.448;6.674;2022-11-20T17:38:01;11.50;57.80
33105;DHT22;19476;51.448;6.674;2022-11-20T17:40:27;11.50;57.50
33105;DHT22;19476;51.448;6.674;2022-11-20T17:42:53;11.50;57.50
33105;DHT22;19476;51.448;6.674;2022-11-20T17:45:18;11.50;57.50
33105;DHT22;19476;51.448;6.674;2022-11-20T17:47:44;11.50;57.60
33105;DHT22;19476;51.448;6.674;2022-11-20T17:50:11;11.50;57.70
33105;DHT22;19476;51.448;6.674;2022-11-20T17:52:37;11.50;57.80
33105;DHT22;19476;51.448;6.674;2022-11-20T17:55:03;11.50;57.70
33105;DHT22;19476;51.448;6.674;2022-11-20T17:57:28;11.50;57.70
33105;DHT22;19476;51.448;6.674;2022-11-20T18:00:13;11.60;57.90